createdAt,value
2023-04-15T00:01:11.808Z,6.03
2023-04-15T00:03:39.034Z,7.65
2023-04-15T00:06:06.197Z,4.68
2023-04-15T00:08:33.241Z,4.63
2023-04-15T00:11:05.835Z,8.20
2023-04-15T00:13:35.498Z,6.57
2023-04-15T00:16:02.646Z,6.32
2023-04-15T00:18:32.706Z,4.97
2023-04-15T00:20:59.415Z,5.00
2023-04-15T00:23:26.649Z,5.90
2023-04-15T00:25:53.373Z,4.15
2023-04-15T00:28:20.087Z,4.25
2023-04-15T00:30:47.310Z,2.75
2023-04-15T00:33:14.545Z,4.63
2023-04-15T00:35:41.505Z,3.08
2023-04-15T00:38:08.332Z,3.42
2023-04-15T00:40:35.542Z,2.40
2023-04-15T00:43:02.576Z,4.22
2023-04-15T00:45:29.346Z,3.67
2023-04-15T00:47:56.839Z,4.35
2023-04-15T00:50:23.814Z,3.78
2023-04-15T00:52:50.673Z,2.97
2023-04-15T00:55:17.441Z,5.60
2023-04-15T00:57:44.225Z,3.20
2023-04-15T01:00:12.112Z,4.20
2023-04-15T01:02:39.232Z,5.47
2023-04-15T01:05:06.307Z,4.53
2023-04-15T01:07:33.017Z,4.57
2023-04-15T01:09:59.807Z,4.50
2023-04-15T01:12:27.096Z,4.55
2023-04-15T01:14:54.997Z,6.68
2023-04-15T01:17:21.872Z,5.93
2023-04-15T01:19:48.793Z,4.15
2023-04-15T01:22:16.057Z,5.20
2023-04-15T01:24:44.052Z,6.72
2023-04-15T01:27:11.656Z,6.97
2023-04-15T01:29:38.881Z,5.93
2023-04-15T01:32:05.933Z,3.53
2023-04-15T01:34:35.049Z,4.10
2023-04-15T01:37:02.381Z,5.30
2023-04-15T01:39:32.153Z,4.88
2023-04-15T01:41:58.986Z,7.60
2023-04-15T01:44:25.733Z,7.07
2023-04-15T01:46:52.667Z,5.10
2023-04-15T01:49:19.956Z,5.28
2023-04-15T01:51:46.677Z,5.18
2023-04-15T01:54:13.386Z,4.07
2023-04-15T01:56:40.132Z,4.57
2023-04-15T01:59:06.798Z,6.20
2023-04-15T02:01:33.919Z,3.58
2023-04-15T02:04:01.077Z,3.65
2023-04-15T02:06:28.341Z,6.32
2023-04-15T02:08:55.081Z,6.57
2023-04-15T02:11:23.185Z,5.10
2023-04-15T02:13:50.137Z,4.70
2023-04-15T02:16:20.161Z,3.70
2023-04-15T02:18:47.090Z,3.42
2023-04-15T02:21:14.205Z,3.85
2023-04-15T02:23:41.097Z,4.53
2023-04-15T02:26:08.176Z,4.65
2023-04-15T02:28:34.990Z,4.85
2023-04-15T02:31:06.499Z,3.95
2023-04-15T02:33:33.362Z,6.65
2023-04-15T02:36:00.353Z,6.15
2023-04-15T02:38:27.084Z,4.43
2023-04-15T02:40:53.813Z,5.90
2023-04-15T02:43:20.604Z,5.38
2023-04-15T02:45:48.055Z,5.30
2023-04-15T02:48:14.996Z,2.92
2023-04-15T02:50:41.808Z,4.93
2023-04-15T02:53:08.536Z,3.00
2023-04-15T02:55:35.258Z,3.58
2023-04-15T02:58:02.150Z,4.22
2023-04-15T03:00:28.889Z,3.17
2023-04-15T03:03:02.884Z,4.72
2023-04-15T03:07:56.257Z,5.55
2023-04-15T03:10:23.016Z,2.55
2023-04-15T03:12:49.750Z,3.80
2023-04-15T03:15:16.788Z,3.80
2023-04-15T03:17:43.644Z,2.92
2023-04-15T03:20:10.527Z,3.38
2023-04-15T03:22:37.248Z,7.38
2023-04-15T03:25:04.175Z,3.80
2023-04-15T03:27:31.053Z,4.13
2023-04-15T03:29:57.876Z,4.18
2023-04-15T03:32:24.713Z,3.78
2023-04-15T03:34:51.503Z,3.95
2023-04-15T03:37:18.187Z,6.60
2023-04-15T03:39:45.467Z,4.80
2023-04-15T03:42:12.201Z,3.53
2023-04-15T03:44:39.069Z,3.88
2023-04-15T03:47:05.834Z,5.07
2023-04-15T03:49:32.701Z,3.75
2023-04-15T03:51:59.983Z,4.72
2023-04-15T03:54:26.695Z,4.80
2023-04-15T03:56:53.511Z,3.50
2023-04-15T03:59:20.412Z,6.80
2023-04-15T04:01:47.275Z,4.28
2023-04-15T04:04:14.189Z,2.95
2023-04-15T04:06:41.090Z,3.67
2023-04-15T04:09:07.849Z,4.43
2023-04-15T04:11:34.579Z,4.13
2023-04-15T04:14:01.410Z,3.25
2023-04-15T04:16:28.483Z,3.50
2023-04-15T04:18:55.315Z,2.83
2023-04-15T04:21:22.058Z,3.78
2023-04-15T04:23:48.755Z,2.97
2023-04-15T04:26:15.479Z,3.28
2023-04-15T04:28:42.188Z,4.80
2023-04-15T04:31:08.982Z,2.70
2023-04-15T04:33:35.887Z,3.60
2023-04-15T04:36:02.686Z,4.25
2023-04-15T04:38:29.458Z,3.50
2023-04-15T04:40:56.482Z,3.75
2023-04-15T04:43:23.280Z,3.22
2023-04-15T04:45:49.984Z,3.47
2023-04-15T04:48:17.085Z,3.47
2023-04-15T04:50:44.582Z,5.03
2023-04-15T04:53:12.042Z,3.15
2023-04-15T04:55:38.730Z,3.63
2023-04-15T04:58:05.431Z,2.85
2023-04-15T05:00:32.262Z,3.33
2023-04-15T05:02:59.179Z,4.07
2023-04-15T05:05:26.126Z,4.45
2023-04-15T05:07:53.374Z,3.60
2023-04-15T05:10:20.074Z,4.45
2023-04-15T05:12:47.058Z,3.72
2023-04-15T05:15:13.812Z,3.95
2023-04-15T05:17:40.549Z,3.47
2023-04-15T05:20:08.075Z,4.47
2023-04-15T05:22:34.929Z,3.88
2023-04-15T05:25:01.671Z,3.90
2023-04-15T05:27:28.440Z,3.42
2023-04-15T05:29:56.582Z,3.65
2023-04-15T05:32:23.561Z,5.22
2023-04-15T05:34:50.550Z,2.97
2023-04-15T05:37:17.305Z,4.50
2023-04-15T05:39:44.526Z,3.80
2023-04-15T05:42:11.426Z,5.38
2023-04-15T05:44:38.169Z,3.92
2023-04-15T05:47:05.898Z,4.88
2023-04-15T05:49:32.674Z,5.18
2023-04-15T05:51:59.413Z,6.35
2023-04-15T05:54:27.862Z,5.95
2023-04-15T05:56:54.859Z,5.18
2023-04-15T05:59:21.956Z,5.90
2023-04-15T06:01:48.796Z,4.88
2023-04-15T06:04:15.675Z,5.25
2023-04-15T06:06:42.696Z,8.02
2023-04-15T06:09:09.400Z,5.57
2023-04-15T06:11:36.308Z,8.80
2023-04-15T06:14:03.172Z,5.47
2023-04-15T06:16:29.909Z,7.13
2023-04-15T06:18:56.744Z,8.35
2023-04-15T06:21:23.540Z,6.28
2023-04-15T06:23:50.387Z,5.55
2023-04-15T06:26:17.122Z,5.75
2023-04-15T06:28:44.031Z,7.07
2023-04-15T06:31:11.014Z,9.57
2023-04-15T06:33:37.843Z,6.25
2023-04-15T06:36:04.596Z,5.28
2023-04-15T06:38:31.410Z,5.95
2023-04-15T06:40:58.136Z,4.90
2023-04-15T06:43:24.892Z,5.75
2023-04-15T06:45:51.731Z,6.03
2023-04-15T06:48:18.704Z,7.03
2023-04-15T06:50:45.415Z,5.75
2023-04-15T06:53:12.358Z,5.78
2023-04-15T06:55:39.168Z,6.70
2023-04-15T06:58:05.856Z,5.47
2023-04-15T07:00:33.782Z,4.57
2023-04-15T07:03:03.850Z,4.22
2023-04-15T07:05:31.075Z,4.20
2023-04-15T07:07:57.951Z,5.35
2023-04-15T07:10:25.772Z,4.30
2023-04-15T07:12:52.623Z,5.45
2023-04-15T07:15:19.617Z,5.10
2023-04-15T07:17:46.413Z,4.35
2023-04-15T07:20:13.956Z,3.90
2023-04-15T07:22:40.877Z,5.32
2023-04-15T07:25:08.097Z,4.38
2023-04-15T07:27:34.853Z,4.82
2023-04-15T07:30:01.980Z,3.97
2023-04-15T07:32:28.822Z,5.38
2023-04-15T07:34:55.585Z,3.80
2023-04-15T07:37:22.281Z,4.32
2023-04-15T07:39:49.125Z,4.50
2023-04-15T07:42:15.855Z,4.28
2023-04-15T07:44:42.590Z,3.85
2023-04-15T07:47:09.270Z,5.22
2023-04-15T07:49:36.295Z,6.05
2023-04-15T07:52:03.132Z,7.60
2023-04-15T07:54:29.863Z,6.53
2023-04-15T07:56:57.325Z,3.17
2023-04-15T07:59:25.004Z,3.60
2023-04-15T08:01:51.800Z,5.95
2023-04-15T08:04:20.357Z,3.53
2023-04-15T08:06:48.395Z,3.45
2023-04-15T08:09:15.135Z,5.75
2023-04-15T08:11:41.933Z,4.63
2023-04-15T08:14:08.656Z,4.03
2023-04-15T08:16:35.410Z,9.10
2023-04-15T08:19:02.487Z,4.68
2023-04-15T08:21:30.923Z,5.07
2023-04-15T08:23:57.941Z,4.75
2023-04-15T08:26:24.767Z,5.35
2023-04-15T08:28:51.590Z,4.75
2023-04-15T08:31:19.168Z,4.80
2023-04-15T08:33:46.334Z,4.10
2023-04-15T08:36:14.024Z,5.47
2023-04-15T08:38:41.070Z,6.85
2023-04-15T08:41:12.356Z,9.35
2023-04-15T08:43:47.095Z,8.27
2023-04-15T08:46:13.895Z,8.75
2023-04-15T08:48:40.800Z,7.18
2023-04-15T08:51:08.379Z,6.30
2023-04-15T08:53:35.461Z,4.68
2023-04-15T08:56:05.057Z,5.05
2023-04-15T08:58:31.860Z,5.47
2023-04-15T09:00:58.579Z,8.52
2023-04-15T09:03:25.610Z,7.82
2023-04-15T09:05:53.253Z,8.02
2023-04-15T09:08:20.281Z,7.40
2023-04-15T09:10:47.055Z,8.73
2023-04-15T09:13:14.105Z,10.35
2023-04-15T09:15:40.793Z,5.85
2023-04-15T09:18:07.646Z,5.55
2023-04-15T09:20:43.875Z,5.22
2023-04-15T09:23:14.460Z,6.75
2023-04-15T09:25:44.182Z,10.82
2023-04-15T09:28:11.515Z,7.32
2023-04-15T09:30:38.319Z,6.85
2023-04-15T09:33:08.870Z,7.65
2023-04-15T09:35:36.744Z,7.43
2023-04-15T09:38:08.002Z,7.53
2023-04-15T09:40:35.979Z,5.03
2023-04-15T09:43:03.893Z,11.98
2023-04-15T09:45:31.047Z,6.75
2023-04-15T09:48:17.252Z,5.35
2023-04-15T09:50:44.225Z,6.72
2023-04-15T09:53:13.734Z,4.97
2023-04-15T09:55:40.505Z,6.20
2023-04-15T09:58:10.456Z,6.93
2023-04-15T10:00:37.424Z,7.22
2023-04-15T10:03:05.606Z,4.47
2023-04-15T10:05:32.406Z,5.93
2023-04-15T10:07:59.089Z,5.72
2023-04-15T10:10:26.090Z,6.60
2023-04-15T10:12:52.784Z,7.07
2023-04-15T10:15:19.535Z,8.10
2023-04-15T10:17:46.454Z,7.72
2023-04-15T10:20:13.371Z,6.60
2023-04-15T10:22:41.213Z,11.00
2023-04-15T10:25:08.166Z,8.32
2023-04-15T10:27:34.961Z,9.07
2023-04-15T10:30:03.784Z,7.43
2023-04-15T10:32:30.749Z,8.38
2023-04-15T10:34:58.132Z,9.45
2023-04-15T10:37:36.219Z,9.15
2023-04-15T10:40:28.137Z,7.90
2023-04-15T10:42:56.588Z,11.32
2023-04-15T10:45:25.298Z,8.38
2023-04-15T10:47:54.863Z,8.25
2023-04-15T10:50:23.036Z,10.10
2023-04-15T10:52:51.839Z,10.73
2023-04-15T10:55:31.625Z,5.63
2023-04-15T10:58:02.307Z,7.25
2023-04-15T11:00:30.301Z,10.70
2023-04-15T11:02:57.846Z,7.30
2023-04-15T11:05:39.863Z,5.32
2023-04-15T11:08:26.227Z,9.05
2023-04-15T11:10:53.590Z,12.48
2023-04-15T11:13:25.187Z,9.05
2023-04-15T11:15:52.870Z,6.20
2023-04-15T11:18:20.153Z,7.25
2023-04-15T11:20:48.487Z,10.40
2023-04-15T11:23:16.048Z,6.43
2023-04-15T11:25:43.501Z,7.53
2023-04-15T11:28:11.144Z,9.00
2023-04-15T11:30:38.314Z,5.47
2023-04-15T11:33:09.283Z,8.88
2023-04-15T11:35:36.208Z,6.82
2023-04-15T11:38:04.080Z,10.18
2023-04-15T11:40:31.585Z,4.68
2023-04-15T11:43:08.150Z,6.35
2023-04-15T11:45:35.573Z,4.78
2023-04-15T11:48:09.042Z,17.50
2023-04-15T11:50:36.905Z,4.57
2023-04-15T11:53:07.662Z,10.85
2023-04-15T11:55:48.417Z,10.35
2023-04-15T11:58:23.364Z,9.00
2023-04-15T12:00:54.614Z,7.40
2023-04-15T12:03:28.591Z,11.80
2023-04-15T12:06:08.853Z,11.45
2023-04-15T12:08:59.062Z,10.65
2023-04-15T12:11:34.067Z,8.20
2023-04-15T12:14:16.134Z,6.82
2023-04-15T12:16:48.559Z,5.97
2023-04-15T12:19:37.670Z,7.55
2023-04-15T12:22:06.556Z,9.82
2023-04-15T12:24:34.199Z,10.27
2023-04-15T12:27:08.004Z,8.00
2023-04-15T12:32:14.712Z,6.97
2023-04-15T12:34:42.898Z,11.63
2023-04-15T12:37:11.530Z,9.60
2023-04-15T12:39:42.387Z,11.15
2023-04-15T12:42:09.228Z,11.75
2023-04-15T12:44:36.368Z,13.40
2023-04-15T12:47:03.319Z,9.40
2023-04-15T12:49:30.794Z,8.20
2023-04-15T12:52:00.098Z,12.55
2023-04-15T12:54:27.840Z,5.40
2023-04-15T12:56:54.886Z,5.22
2023-04-15T12:59:22.004Z,7.50
2023-04-15T13:01:49.001Z,6.78
2023-04-15T13:04:16.544Z,17.67
2023-04-15T13:06:43.419Z,8.23
2023-04-15T13:09:10.280Z,5.82
2023-04-15T13:11:37.142Z,6.20
2023-04-15T13:14:08.778Z,11.98
2023-04-15T13:16:35.706Z,11.15
2023-04-15T13:19:02.739Z,12.98
2023-04-15T13:21:29.529Z,12.85
2023-04-15T13:23:56.204Z,6.90
2023-04-15T13:26:22.937Z,6.05
2023-04-15T13:28:49.605Z,7.05
2023-04-15T13:31:16.413Z,7.40
2023-04-15T13:33:43.193Z,16.42
2023-04-15T13:36:09.911Z,11.07
2023-04-15T13:38:36.677Z,14.05
2023-04-15T13:41:03.841Z,7.47
2023-04-15T13:43:30.670Z,9.77
2023-04-15T13:45:57.571Z,9.38
2023-04-15T13:48:24.362Z,9.75
2023-04-15T13:50:53.212Z,9.27
2023-04-15T13:53:19.887Z,6.38
2023-04-15T13:55:46.685Z,7.35
2023-04-15T13:58:13.420Z,7.38
2023-04-15T14:00:40.591Z,10.85
2023-04-15T14:03:07.501Z,11.93
2023-04-15T14:05:34.297Z,8.07
2023-04-15T14:08:01.111Z,7.43
2023-04-15T14:10:27.883Z,10.50
2023-04-15T14:12:54.561Z,12.32
2023-04-15T14:15:21.824Z,7.53
2023-04-15T14:17:48.625Z,6.97
2023-04-15T14:20:17.152Z,10.68
2023-04-15T14:22:44.221Z,7.03
2023-04-15T14:25:17.327Z,6.97
2023-04-15T14:27:50.506Z,9.45
2023-04-15T14:30:17.615Z,7.72
2023-04-15T14:32:44.357Z,10.30
2023-04-15T14:35:11.224Z,5.53
2023-04-15T14:37:37.992Z,7.80
2023-04-15T14:40:05.089Z,6.30
2023-04-15T14:42:31.807Z,6.55
2023-04-15T14:44:58.796Z,7.80
2023-04-15T14:47:25.773Z,9.13
2023-04-15T14:49:52.552Z,5.13
2023-04-15T14:52:19.267Z,6.90
2023-04-15T14:54:45.934Z,9.85
2023-04-15T14:57:12.761Z,12.80
2023-04-15T14:59:39.637Z,12.63
2023-04-15T15:02:06.478Z,6.13
2023-04-15T15:04:34.131Z,9.63
2023-04-15T15:07:00.937Z,13.90
2023-04-15T15:09:29.082Z,6.82
2023-04-15T15:11:57.289Z,9.90
2023-04-15T15:14:24.511Z,8.25
2023-04-15T15:16:51.263Z,6.50
2023-04-15T15:19:18.080Z,10.15
2023-04-15T15:21:44.792Z,9.55
2023-04-15T15:24:11.510Z,7.75
2023-04-15T15:26:38.386Z,8.50
2023-04-15T15:29:05.395Z,10.93
2023-04-15T15:31:32.359Z,10.70
2023-04-15T15:33:59.157Z,11.73
2023-04-15T15:36:27.162Z,8.25
2023-04-15T15:38:53.868Z,8.82
2023-04-15T15:41:21.288Z,9.60
2023-04-15T15:43:47.970Z,6.78
2023-04-15T15:46:14.707Z,7.03
2023-04-15T15:48:41.422Z,10.32
2023-04-15T15:51:08.230Z,12.50
2023-04-15T15:53:35.332Z,7.68
2023-04-15T15:56:03.720Z,9.35
2023-04-15T15:58:31.158Z,8.73
2023-04-15T16:01:01.949Z,8.52
2023-04-15T16:03:29.279Z,8.07
2023-04-15T16:05:56.176Z,15.32
2023-04-15T16:08:23.007Z,10.38
2023-04-15T16:10:49.755Z,8.27
2023-04-15T16:13:16.993Z,6.55
2023-04-15T16:15:43.773Z,8.75
2023-04-15T16:18:10.717Z,8.25
2023-04-15T16:20:38.265Z,10.05
2023-04-15T16:23:12.218Z,13.02
2023-04-15T16:25:38.970Z,9.93
2023-04-15T16:28:11.793Z,12.05
2023-04-15T16:30:49.705Z,6.18
2023-04-15T16:33:16.450Z,8.80
2023-04-15T16:35:43.270Z,11.10
2023-04-15T16:38:10.052Z,10.38
2023-04-15T16:40:37.535Z,8.27
2023-04-15T16:43:07.228Z,11.13
2023-04-15T16:45:34.085Z,7.13
2023-04-15T16:48:00.902Z,12.93
2023-04-15T16:50:27.843Z,8.63
2023-04-15T16:52:54.871Z,6.10
2023-04-15T16:55:21.721Z,8.80
2023-04-15T16:58:01.991Z,8.27
2023-04-15T17:00:31.071Z,6.35
2023-04-15T17:02:58.229Z,7.03
2023-04-15T17:05:27.240Z,10.43
2023-04-15T17:07:54.170Z,6.38
2023-04-15T17:10:21.029Z,7.00
2023-04-15T17:12:47.724Z,6.50
2023-04-15T17:15:14.585Z,5.03
2023-04-15T17:17:41.430Z,7.63
2023-04-15T17:20:08.392Z,10.27
2023-04-15T17:22:35.193Z,9.25
2023-04-15T17:25:02.258Z,7.25
2023-04-15T17:27:29.896Z,5.50
2023-04-15T17:29:56.896Z,9.65
2023-04-15T17:32:24.067Z,9.13
2023-04-15T17:34:51.324Z,9.60
2023-04-15T17:37:18.506Z,10.55
2023-04-15T17:39:45.405Z,9.45
2023-04-15T17:42:12.611Z,9.45
2023-04-15T17:44:39.799Z,8.43
2023-04-15T17:47:06.543Z,8.82
2023-04-15T17:49:34.228Z,7.90
2023-04-15T17:52:01.288Z,7.72
2023-04-15T17:54:28.241Z,9.10
2023-04-15T17:56:56.620Z,7.13
2023-04-15T17:59:23.623Z,8.55
2023-04-15T18:01:50.643Z,10.73
2023-04-15T18:04:17.629Z,10.50
2023-04-15T18:06:44.426Z,9.73
2023-04-15T18:09:11.486Z,12.02
2023-04-15T18:11:39.976Z,11.10
2023-04-15T18:14:07.236Z,6.78
2023-04-15T18:16:34.368Z,8.57
2023-04-15T18:19:01.774Z,8.43
2023-04-15T18:21:28.522Z,7.63
2023-04-15T18:23:55.566Z,16.35
2023-04-15T18:26:22.403Z,9.13
2023-04-15T18:28:49.172Z,9.13
2023-04-15T18:31:18.426Z,11.02
2023-04-15T18:33:45.331Z,8.90
2023-04-15T18:36:12.161Z,14.32
2023-04-15T18:38:38.840Z,7.55
2023-04-15T18:41:05.865Z,8.27
2023-04-15T18:43:33.173Z,8.20
2023-04-15T18:46:00.215Z,8.85
2023-04-15T18:48:27.075Z,6.30
2023-04-15T18:50:54.204Z,6.63
2023-04-15T18:53:21.439Z,7.65
2023-04-15T18:55:48.676Z,8.15
2023-04-15T18:58:15.852Z,5.22
2023-04-15T19:00:43.875Z,4.43
2023-04-15T19:03:11.531Z,7.60
2023-04-15T19:05:38.557Z,5.80
2023-04-15T19:08:05.414Z,5.93
2023-04-15T19:10:32.242Z,6.80
2023-04-15T19:12:58.984Z,5.90
2023-04-15T19:15:25.935Z,5.40
2023-04-15T19:17:52.710Z,7.15
2023-04-15T19:20:19.478Z,8.20
2023-04-15T19:22:46.293Z,8.32
2023-04-15T19:25:13.088Z,12.07
2023-04-15T19:27:39.855Z,8.38
2023-04-15T19:30:07.684Z,11.55
2023-04-15T19:32:35.079Z,9.85
2023-04-15T19:35:01.960Z,8.38
2023-04-15T19:37:28.668Z,9.73
2023-04-15T19:39:56.074Z,7.80
2023-04-15T19:42:22.867Z,8.00
2023-04-15T19:44:49.586Z,10.40
2023-04-15T19:47:16.359Z,17.40
2023-04-15T19:49:43.159Z,12.82
2023-04-15T19:52:10.938Z,8.57
2023-04-15T19:54:37.746Z,8.13
2023-04-15T19:57:04.501Z,11.13
2023-04-15T19:59:31.275Z,16.80
2023-04-15T20:01:58.107Z,11.18
2023-04-15T20:04:25.320Z,9.85
2023-04-15T20:06:52.145Z,8.57
2023-04-15T20:09:19.015Z,13.80
2023-04-15T20:12:10.066Z,12.85
2023-04-15T20:14:32.883Z,13.15
2023-04-15T20:16:59.733Z,14.25
2023-04-15T20:19:26.589Z,11.40
2023-04-15T20:21:54.329Z,10.10
2023-04-15T20:24:21.591Z,8.43
2023-04-15T20:26:48.361Z,11.98
2023-04-15T20:29:15.204Z,17.45
2023-04-15T20:31:41.987Z,10.55
2023-04-15T20:34:11.810Z,13.68
2023-04-15T20:36:38.870Z,10.68
2023-04-15T20:39:05.942Z,16.92
2023-04-15T20:41:33.048Z,12.27
2023-04-15T20:43:59.866Z,15.60
2023-04-15T20:46:27.673Z,16.13
2023-04-15T20:48:55.658Z,15.80
2023-04-15T20:51:22.545Z,10.45
2023-04-15T20:53:49.673Z,11.25
2023-04-15T20:56:16.518Z,13.73
2023-04-15T20:58:43.201Z,11.95
2023-04-15T21:01:09.966Z,13.95
2023-04-15T21:03:37.024Z,17.90
2023-04-15T21:06:03.881Z,13.13
2023-04-15T21:08:31.529Z,11.77
2023-04-15T21:10:58.385Z,14.13
2023-04-15T21:13:25.122Z,17.00
2023-04-15T21:15:54.089Z,17.02
2023-04-15T21:18:24.144Z,13.52
2023-04-15T21:20:57.945Z,11.98
2023-04-15T21:23:25.376Z,16.73
2023-04-15T21:25:52.338Z,17.08
2023-04-15T21:28:19.073Z,13.40
2023-04-15T21:30:46.295Z,23.63
2023-04-15T21:33:13.083Z,20.13
2023-04-15T21:35:39.900Z,21.05
2023-04-15T21:38:06.740Z,15.90
2023-04-15T21:40:33.591Z,17.38
2023-04-15T21:43:00.334Z,17.20
2023-04-15T21:45:27.071Z,21.33
2023-04-15T21:48:00.761Z,18.52
2023-04-15T21:50:36.496Z,19.02
2023-04-15T21:53:03.992Z,16.85
2023-04-15T21:55:30.707Z,15.50
2023-04-15T21:57:57.376Z,15.48
2023-04-15T22:00:24.249Z,22.77
2023-04-15T22:02:51.650Z,16.77
2023-04-15T22:05:18.622Z,17.58
2023-04-15T22:07:45.517Z,15.30
2023-04-15T22:10:12.214Z,18.67
2023-04-15T22:12:41.829Z,18.73
2023-04-15T22:15:08.971Z,17.45
2023-04-15T22:17:35.706Z,20.10
2023-04-15T22:20:03.139Z,17.45
2023-04-15T22:22:44.134Z,14.82
2023-04-15T22:25:11.877Z,16.42
2023-04-15T22:27:38.565Z,24.63
2023-04-15T22:30:06.008Z,14.30
2023-04-15T22:32:32.763Z,16.40
2023-04-15T22:34:59.598Z,17.92
2023-04-15T22:37:26.435Z,32.45
2023-04-15T22:39:53.185Z,14.00
2023-04-15T22:42:20.028Z,16.55
2023-04-15T22:44:46.827Z,16.40
2023-04-15T22:47:13.595Z,16.63
2023-04-15T22:49:41.135Z,20.25
2023-04-15T22:52:10.382Z,19.88
2023-04-15T22:54:38.966Z,17.08
2023-04-15T22:57:05.956Z,14.50
2023-04-15T22:59:32.703Z,16.88
2023-04-15T23:02:00.359Z,15.13
2023-04-15T23:04:27.670Z,16.08
2023-04-15T23:06:54.742Z,17.13
2023-04-15T23:09:21.527Z,13.18
2023-04-15T23:11:48.569Z,21.55
2023-04-15T23:14:15.439Z,19.10
2023-04-15T23:16:42.179Z,15.60
2023-04-15T23:19:09.214Z,14.35
2023-04-15T23:21:36.159Z,15.52
2023-04-15T23:24:02.907Z,15.98
2023-04-15T23:26:29.715Z,13.65
2023-04-15T23:28:56.444Z,12.95
2023-04-15T23:31:23.195Z,14.38
2023-04-15T23:33:49.946Z,14.60
2023-04-15T23:36:17.016Z,11.57
2023-04-15T23:38:43.748Z,21.23
2023-04-15T23:41:11.938Z,16.85
2023-04-15T23:43:38.710Z,14.25
2023-04-15T23:46:05.493Z,16.65
2023-04-15T23:48:32.651Z,17.83
2023-04-15T23:51:00.509Z,17.23
2023-04-15T23:53:27.637Z,14.55
2023-04-15T23:55:54.314Z,17.08
2023-04-15T23:58:21.132Z,17.13
